sensor_id;sensor_type;location;lat;lon;timestamp;P1;durP1;ratioP1;P2;durP2;ratioP2
33902;SDS011;20194;50.950;5.346;2022-10-16T00:01:25;3.55;;;1.27;;
33902;SDS011;20194;50.950;5.346;2022-10-16T00:03:52;1.83;;;1.10;;
33902;SDS011;20194;50.950;5.346;2022-10-16T00:06:19;2.08;;;1.20;;
33902;SDS011;20194;50.950;5.346;2022-10-16T00:08:48;1.98;;;0.98;;
33902;SDS011;20194;50.950;5.346;2022-10-16T00:11:15;2.92;;;1.02;;
33902;SDS011;20194;50.950;5.346;2022-10-16T00:13:46;1.70;;;1.20;;
33902;SDS011;20194;50.950;5.346;2022-10-16T00:16:13;3.55;;;1.08;;
33902;SDS011;20194;50.950;5.346;2022-10-16T00:18:39;3.63;;;1.10;;
33902;SDS011;20194;50.950;5.346;2022-10-16T00:21:07;4.82;;;0.85;;
33902;SDS011;20194;50.950;5.346;2022-10-16T00:23:34;2.67;;;0.98;;
33902;SDS011;20194;50.950;5.346;2022-10-16T00:26:02;2.22;;;0.90;;
33902;SDS011;20194;50.950;5.346;2022-10-16T00:28:30;1.67;;;1.00;;
33902;SDS011;20194;50.950;5.346;2022-10-16T00:30:56;3.40;;;1.10;;
33902;SDS011;20194;50.950;5.346;2022-10-16T00:33:22;3.45;;;1.00;;
33902;SDS011;20194;50.950;5.346;2022-10-16T00:35:48;3.58;;;1.17;;
33902;SDS011;20194;50.950;5.346;2022-10-16T00:38:15;1.50;;;0.80;;
33902;SDS011;20194;50.950;5.346;2022-10-16T00:40:41;1.65;;;0.98;;
33902;SDS011;20194;50.950;5.346;2022-10-16T00:43:14;7.80;;;1.25;;
33902;SDS011;20194;50.950;5.346;2022-10-16T00:45:59;3.92;;;0.88;;
33902;SDS011;20194;50.950;5.346;2022-10-16T00:48:26;3.58;;;1.02;;
33902;SDS011;20194;50.950;5.346;2022-10-16T00:50:53;4.90;;;0.95;;
33902;SDS011;20194;50.950;5.346;2022-10-16T00:53:19;5.88;;;0.70;;
33902;SDS011;20194;50.950;5.346;2022-10-16T00:55:45;1.65;;;0.95;;
33902;SDS011;20194;50.950;5.346;2022-10-16T00:58:10;1.20;;;0.73;;
33902;SDS011;20194;50.950;5.346;2022-10-16T01:00:36;4.18;;;1.20;;
33902;SDS011;20194;50.950;5.346;2022-10-16T01:03:02;1.83;;;0.93;;
33902;SDS011;20194;50.950;5.346;2022-10-16T01:05:49;3.17;;;1.08;;
33902;SDS011;20194;50.950;5.346;2022-10-16T01:08:25;6.07;;;1.40;;
33902;SDS011;20194;50.950;5.346;2022-10-16T01:11:11;1.48;;;1.00;;
33902;SDS011;20194;50.950;5.346;2022-10-16T01:13:54;2.80;;;1.05;;
33902;SDS011;20194;50.950;5.346;2022-10-16T01:19:30;22.58;;;1.67;;
33902;SDS011;20194;50.950;5.346;2022-10-16T01:22:09;1.33;;;0.80;;
33902;SDS011;20194;50.950;5.346;2022-10-16T01:24:38;2.08;;;0.80;;
33902;SDS011;20194;50.950;5.346;2022-10-16T01:30:17;0.70;;;0.70;;
33902;SDS011;20194;50.950;5.346;2022-10-16T01:32:57;2.25;;;1.02;;
33902;SDS011;20194;50.950;5.346;2022-10-16T01:38:18;1.95;;;0.90;;
33902;SDS011;20194;50.950;5.346;2022-10-16T01:40:49;6.90;;;1.00;;
33902;SDS011;20194;50.950;5.346;2022-10-16T01:45:52;0.90;;;0.80;;
33902;SDS011;20194;50.950;5.346;2022-10-16T01:48:18;1.20;;;1.02;;
33902;SDS011;20194;50.950;5.346;2022-10-16T01:50:50;2.97;;;0.95;;
33902;SDS011;20194;50.950;5.346;2022-10-16T01:53:24;7.03;;;1.00;;
33902;SDS011;20194;50.950;5.346;2022-10-16T01:55:51;2.92;;;1.00;;
33902;SDS011;20194;50.950;5.346;2022-10-16T01:58:19;2.90;;;1.02;;
33902;SDS011;20194;50.950;5.346;2022-10-16T02:00:47;1.20;;;1.08;;
33902;SDS011;20194;50.950;5.346;2022-10-16T02:03:14;2.17;;;0.70;;
33902;SDS011;20194;50.950;5.346;2022-10-16T02:05:47;2.55;;;1.08;;
33902;SDS011;20194;50.950;5.346;2022-10-16T02:08:18;2.30;;;0.90;;
33902;SDS011;20194;50.950;5.346;2022-10-16T02:10:44;2.75;;;0.90;;
33902;SDS011;20194;50.950;5.346;2022-10-16T02:13:12;2.10;;;0.80;;
33902;SDS011;20194;50.950;5.346;2022-10-16T02:15:43;1.65;;;0.85;;
33902;SDS011;20194;50.950;5.346;2022-10-16T02:18:09;1.52;;;1.13;;
33902;SDS011;20194;50.950;5.346;2022-10-16T02:20:42;1.02;;;0.80;;
33902;SDS011;20194;50.950;5.346;2022-10-16T02:23:16;2.20;;;1.17;;
33902;SDS011;20194;50.950;5.346;2022-10-16T02:26:06;3.03;;;0.90;;
33902;SDS011;20194;50.950;5.346;2022-10-16T02:28:40;2.05;;;0.93;;
33902;SDS011;20194;50.950;5.346;2022-10-16T02:31:11;2.05;;;0.85;;
33902;SDS011;20194;50.950;5.346;2022-10-16T02:33:41;1.95;;;1.02;;
33902;SDS011;20194;50.950;5.346;2022-10-16T02:36:09;3.97;;;1.13;;
33902;SDS011;20194;50.950;5.346;2022-10-16T02:38:35;1.35;;;0.90;;
33902;SDS011;20194;50.950;5.346;2022-10-16T02:41:02;2.72;;;1.00;;
33902;SDS011;20194;50.950;5.346;2022-10-16T02:43:29;3.05;;;1.05;;
33902;SDS011;20194;50.950;5.346;2022-10-16T02:45:55;2.13;;;0.90;;
33902;SDS011;20194;50.950;5.346;2022-10-16T02:48:20;2.05;;;1.02;;
33902;SDS011;20194;50.950;5.346;2022-10-16T02:50:47;1.48;;;0.80;;
33902;SDS011;20194;50.950;5.346;2022-10-16T02:53:12;4.43;;;0.90;;
33902;SDS011;20194;50.950;5.346;2022-10-16T02:55:38;3.45;;;1.35;;
33902;SDS011;20194;50.950;5.346;2022-10-16T02:58:03;1.38;;;0.70;;
33902;SDS011;20194;50.950;5.346;2022-10-16T03:00:29;2.95;;;0.98;;
33902;SDS011;20194;50.950;5.346;2022-10-16T03:02:55;2.92;;;0.80;;
33902;SDS011;20194;50.950;5.346;2022-10-16T03:05:20;0.88;;;0.77;;
33902;SDS011;20194;50.950;5.346;2022-10-16T03:07:46;5.53;;;1.20;;
33902;SDS011;20194;50.950;5.346;2022-10-16T03:10:12;1.92;;;0.80;;
33902;SDS011;20194;50.950;5.346;2022-10-16T03:12:37;1.60;;;0.90;;
33902;SDS011;20194;50.950;5.346;2022-10-16T03:15:03;2.13;;;0.95;;
33902;SDS011;20194;50.950;5.346;2022-10-16T03:17:29;3.90;;;1.20;;
33902;SDS011;20194;50.950;5.346;2022-10-16T03:19:56;1.45;;;0.98;;
33902;SDS011;20194;50.950;5.346;2022-10-16T03:22:22;4.13;;;1.13;;
33902;SDS011;20194;50.950;5.346;2022-10-16T03:24:48;2.33;;;0.93;;
33902;SDS011;20194;50.950;5.346;2022-10-16T03:27:13;2.90;;;1.27;;
33902;SDS011;20194;50.950;5.346;2022-10-16T03:29:39;1.33;;;0.90;;
33902;SDS011;20194;50.950;5.346;2022-10-16T03:32:05;1.48;;;1.10;;
33902;SDS011;20194;50.950;5.346;2022-10-16T03:34:31;4.88;;;1.50;;
33902;SDS011;20194;50.950;5.346;2022-10-16T03:36:56;8.38;;;1.00;;
33902;SDS011;20194;50.950;5.346;2022-10-16T03:39:22;2.85;;;1.08;;
33902;SDS011;20194;50.950;5.346;2022-10-16T03:41:48;1.52;;;1.05;;
33902;SDS011;20194;50.950;5.346;2022-10-16T03:44:14;2.83;;;0.95;;
33902;SDS011;20194;50.950;5.346;2022-10-16T03:46:39;5.05;;;1.02;;
33902;SDS011;20194;50.950;5.346;2022-10-16T03:49:05;2.22;;;1.23;;
33902;SDS011;20194;50.950;5.346;2022-10-16T03:51:31;3.03;;;0.98;;
33902;SDS011;20194;50.950;5.346;2022-10-16T03:53:56;6.68;;;1.20;;
33902;SDS011;20194;50.950;5.346;2022-10-16T03:56:23;4.07;;;1.48;;
33902;SDS011;20194;50.950;5.346;2022-10-16T03:58:48;6.00;;;1.40;;
33902;SDS011;20194;50.950;5.346;2022-10-16T04:01:14;1.52;;;1.13;;
33902;SDS011;20194;50.950;5.346;2022-10-16T04:03:40;1.38;;;1.00;;
33902;SDS011;20194;50.950;5.346;2022-10-16T04:06:05;1.48;;;1.00;;
33902;SDS011;20194;50.950;5.346;2022-10-16T04:08:31;5.30;;;1.15;;
33902;SDS011;20194;50.950;5.346;2022-10-16T04:10:59;2.80;;;1.20;;
33902;SDS011;20194;50.950;5.346;2022-10-16T04:13:26;2.58;;;1.40;;
33902;SDS011;20194;50.950;5.346;2022-10-16T04:15:51;5.43;;;1.50;;
33902;SDS011;20194;50.950;5.346;2022-10-16T04:18:17;1.55;;;1.23;;
33902;SDS011;20194;50.950;5.346;2022-10-16T04:20:43;2.95;;;1.23;;
33902;SDS011;20194;50.950;5.346;2022-10-16T04:23:08;5.55;;;1.58;;
33902;SDS011;20194;50.950;5.346;2022-10-16T04:25:34;4.18;;;1.30;;
33902;SDS011;20194;50.950;5.346;2022-10-16T04:28:00;3.80;;;1.58;;
33902;SDS011;20194;50.950;5.346;2022-10-16T04:30:25;1.95;;;1.15;;
33902;SDS011;20194;50.950;5.346;2022-10-16T04:32:51;4.75;;;1.65;;
33902;SDS011;20194;50.950;5.346;2022-10-16T04:35:18;5.78;;;1.42;;
33902;SDS011;20194;50.950;5.346;2022-10-16T04:37:45;5.38;;;1.40;;
33902;SDS011;20194;50.950;5.346;2022-10-16T04:40:11;5.20;;;1.80;;
33902;SDS011;20194;50.950;5.346;2022-10-16T04:42:37;3.17;;;1.40;;
33902;SDS011;20194;50.950;5.346;2022-10-16T04:45:04;4.93;;;1.42;;
33902;SDS011;20194;50.950;5.346;2022-10-16T04:47:30;3.33;;;1.70;;
33902;SDS011;20194;50.950;5.346;2022-10-16T04:49:56;2.65;;;1.60;;
33902;SDS011;20194;50.950;5.346;2022-10-16T04:52:23;3.45;;;1.58;;
33902;SDS011;20194;50.950;5.346;2022-10-16T04:54:50;6.10;;;1.67;;
33902;SDS011;20194;50.950;5.346;2022-10-16T04:57:16;3.42;;;1.70;;
33902;SDS011;20194;50.950;5.346;2022-10-16T04:59:42;2.15;;;1.55;;
33902;SDS011;20194;50.950;5.346;2022-10-16T05:02:07;3.03;;;1.75;;
33902;SDS011;20194;50.950;5.346;2022-10-16T05:04:33;4.53;;;1.85;;
33902;SDS011;20194;50.950;5.346;2022-10-16T05:06:59;3.00;;;1.70;;
33902;SDS011;20194;50.950;5.346;2022-10-16T05:09:24;2.83;;;1.70;;
33902;SDS011;20194;50.950;5.346;2022-10-16T05:11:50;4.82;;;2.00;;
33902;SDS011;20194;50.950;5.346;2022-10-16T05:14:16;6.38;;;1.70;;
33902;SDS011;20194;50.950;5.346;2022-10-16T05:16:42;5.07;;;2.00;;
33902;SDS011;20194;50.950;5.346;2022-10-16T05:19:08;4.85;;;2.45;;
33902;SDS011;20194;50.950;5.346;2022-10-16T05:21:33;3.70;;;1.80;;
33902;SDS011;20194;50.950;5.346;2022-10-16T05:23:59;5.38;;;1.85;;
33902;SDS011;20194;50.950;5.346;2022-10-16T05:26:25;7.75;;;2.30;;
33902;SDS011;20194;50.950;5.346;2022-10-16T05:28:51;7.53;;;1.77;;
33902;SDS011;20194;50.950;5.346;2022-10-16T05:31:16;5.35;;;2.30;;
33902;SDS011;20194;50.950;5.346;2022-10-16T05:33:42;5.03;;;2.30;;
33902;SDS011;20194;50.950;5.346;2022-10-16T05:36:09;4.20;;;1.95;;
33902;SDS011;20194;50.950;5.346;2022-10-16T05:38:35;5.38;;;1.83;;
33902;SDS011;20194;50.950;5.346;2022-10-16T05:41:01;4.35;;;2.08;;
33902;SDS011;20194;50.950;5.346;2022-10-16T05:43:28;3.45;;;1.80;;
33902;SDS011;20194;50.950;5.346;2022-10-16T05:45:57;4.43;;;2.00;;
33902;SDS011;20194;50.950;5.346;2022-10-16T05:48:27;4.55;;;1.88;;
33902;SDS011;20194;50.950;5.346;2022-10-16T05:51:01;2.15;;;1.80;;
33902;SDS011;20194;50.950;5.346;2022-10-16T05:53:32;5.72;;;1.95;;
33902;SDS011;20194;50.950;5.346;2022-10-16T05:55:59;7.78;;;2.15;;
33902;SDS011;20194;50.950;5.346;2022-10-16T05:58:28;6.60;;;2.22;;
33902;SDS011;20194;50.950;5.346;2022-10-16T06:00:55;5.10;;;2.03;;
33902;SDS011;20194;50.950;5.346;2022-10-16T06:03:22;3.78;;;2.22;;
33902;SDS011;20194;50.950;5.346;2022-10-16T06:05:48;6.50;;;2.78;;
33902;SDS011;20194;50.950;5.346;2022-10-16T06:08:14;6.28;;;2.22;;
33902;SDS011;20194;50.950;5.346;2022-10-16T06:10:40;4.40;;;2.42;;
33902;SDS011;20194;50.950;5.346;2022-10-16T06:13:06;3.92;;;2.08;;
33902;SDS011;20194;50.950;5.346;2022-10-16T06:15:31;4.80;;;2.20;;
33902;SDS011;20194;50.950;5.346;2022-10-16T06:17:57;2.85;;;1.90;;
33902;SDS011;20194;50.950;5.346;2022-10-16T06:20:23;3.67;;;2.38;;
33902;SDS011;20194;50.950;5.346;2022-10-16T06:22:48;3.63;;;2.00;;
33902;SDS011;20194;50.950;5.346;2022-10-16T06:25:14;2.90;;;2.08;;
33902;SDS011;20194;50.950;5.346;2022-10-16T06:27:40;5.95;;;2.58;;
33902;SDS011;20194;50.950;5.346;2022-10-16T06:30:06;8.07;;;2.40;;
33902;SDS011;20194;50.950;5.346;2022-10-16T06:32:32;5.25;;;2.65;;
33902;SDS011;20194;50.950;5.346;2022-10-16T06:34:58;6.35;;;2.30;;
33902;SDS011;20194;50.950;5.346;2022-10-16T06:37:24;7.03;;;2.25;;
33902;SDS011;20194;50.950;5.346;2022-10-16T06:39:50;7.20;;;2.53;;
33902;SDS011;20194;50.950;5.346;2022-10-16T06:42:17;4.95;;;1.92;;
33902;SDS011;20194;50.950;5.346;2022-10-16T06:44:43;5.43;;;1.90;;
33902;SDS011;20194;50.950;5.346;2022-10-16T06:47:09;4.78;;;2.20;;
33902;SDS011;20194;50.950;5.346;2022-10-16T06:49:35;7.63;;;2.33;;
33902;SDS011;20194;50.950;5.346;2022-10-16T06:52:01;7.40;;;2.55;;
33902;SDS011;20194;50.950;5.346;2022-10-16T06:54:27;4.82;;;2.00;;
33902;SDS011;20194;50.950;5.346;2022-10-16T06:56:53;3.63;;;2.17;;
33902;SDS011;20194;50.950;5.346;2022-10-16T06:59:19;5.80;;;2.35;;
33902;SDS011;20194;50.950;5.346;2022-10-16T07:01:46;8.32;;;2.00;;
33902;SDS011;20194;50.950;5.346;2022-10-16T07:04:11;4.38;;;2.30;;
33902;SDS011;20194;50.950;5.346;2022-10-16T07:06:37;2.63;;;1.83;;
33902;SDS011;20194;50.950;5.346;2022-10-16T07:09:04;3.08;;;2.22;;
33902;SDS011;20194;50.950;5.346;2022-10-16T07:11:34;5.57;;;2.33;;
33902;SDS011;20194;50.950;5.346;2022-10-16T07:14:00;6.43;;;2.45;;
33902;SDS011;20194;50.950;5.346;2022-10-16T07:16:28;7.10;;;2.72;;
33902;SDS011;20194;50.950;5.346;2022-10-16T07:18:55;4.28;;;1.80;;
33902;SDS011;20194;50.950;5.346;2022-10-16T07:21:26;2.50;;;2.30;;
33902;SDS011;20194;50.950;5.346;2022-10-16T07:23:57;6.78;;;2.67;;
33902;SDS011;20194;50.950;5.346;2022-10-16T07:26:25;3.58;;;2.55;;
33902;SDS011;20194;50.950;5.346;2022-10-16T07:28:52;6.20;;;2.38;;
33902;SDS011;20194;50.950;5.346;2022-10-16T07:31:18;5.57;;;2.28;;
33902;SDS011;20194;50.950;5.346;2022-10-16T07:33:45;6.30;;;2.20;;
33902;SDS011;20194;50.950;5.346;2022-10-16T07:36:13;6.45;;;2.35;;
33902;SDS011;20194;50.950;5.346;2022-10-16T07:38:39;4.35;;;2.58;;
33902;SDS011;20194;50.950;5.346;2022-10-16T07:41:07;5.93;;;2.00;;
33902;SDS011;20194;50.950;5.346;2022-10-16T07:43:35;2.67;;;1.95;;
33902;SDS011;20194;50.950;5.346;2022-10-16T07:46:01;4.07;;;2.08;;
33902;SDS011;20194;50.950;5.346;2022-10-16T07:48:27;3.17;;;1.92;;
33902;SDS011;20194;50.950;5.346;2022-10-16T07:51:05;5.32;;;1.88;;
33902;SDS011;20194;50.950;5.346;2022-10-16T07:53:32;5.05;;;2.08;;
33902;SDS011;20194;50.950;5.346;2022-10-16T07:55:58;2.67;;;2.00;;
33902;SDS011;20194;50.950;5.346;2022-10-16T07:58:25;2.40;;;1.85;;
33902;SDS011;20194;50.950;5.346;2022-10-16T08:00:51;2.50;;;1.58;;
33902;SDS011;20194;50.950;5.346;2022-10-16T08:03:17;4.22;;;2.30;;
33902;SDS011;20194;50.950;5.346;2022-10-16T08:05:43;10.48;;;2.22;;
33902;SDS011;20194;50.950;5.346;2022-10-16T08:08:11;6.93;;;2.03;;
33902;SDS011;20194;50.950;5.346;2022-10-16T08:10:39;6.28;;;1.80;;
33902;SDS011;20194;50.950;5.346;2022-10-16T08:13:04;3.70;;;1.70;;
33902;SDS011;20194;50.950;5.346;2022-10-16T08:15:30;5.20;;;1.67;;
33902;SDS011;20194;50.950;5.346;2022-10-16T08:17:59;3.88;;;1.85;;
33902;SDS011;20194;50.950;5.346;2022-10-16T08:20:27;2.45;;;1.55;;
33902;SDS011;20194;50.950;5.346;2022-10-16T08:22:54;3.13;;;1.58;;
33902;SDS011;20194;50.950;5.346;2022-10-16T08:25:23;1.90;;;1.17;;
33902;SDS011;20194;50.950;5.346;2022-10-16T08:27:49;6.32;;;1.60;;
33902;SDS011;20194;50.950;5.346;2022-10-16T08:30:15;3.42;;;1.50;;
33902;SDS011;20194;50.950;5.346;2022-10-16T08:32:41;3.60;;;1.38;;
33902;SDS011;20194;50.950;5.346;2022-10-16T08:35:08;3.78;;;1.50;;
33902;SDS011;20194;50.950;5.346;2022-10-16T08:37:35;2.17;;;1.13;;
33902;SDS011;20194;50.950;5.346;2022-10-16T08:40:01;8.13;;;1.60;;
33902;SDS011;20194;50.950;5.346;2022-10-16T08:47:25;5.80;;;1.70;;
33902;SDS011;20194;50.950;5.346;2022-10-16T08:50:02;3.58;;;1.20;;
33902;SDS011;20194;50.950;5.346;2022-10-16T08:52:35;3.88;;;1.63;;
33902;SDS011;20194;50.950;5.346;2022-10-16T08:55:06;7.28;;;1.60;;
33902;SDS011;20194;50.950;5.346;2022-10-16T08:57:41;4.65;;;1.38;;
33902;SDS011;20194;50.950;5.346;2022-10-16T09:00:13;5.18;;;1.42;;
33902;SDS011;20194;50.950;5.346;2022-10-16T09:05:35;4.68;;;1.40;;
33902;SDS011;20194;50.950;5.346;2022-10-16T09:14:15;2.50;;;1.13;;
33902;SDS011;20194;50.950;5.346;2022-10-16T09:16:52;1.77;;;1.20;;
33902;SDS011;20194;50.950;5.346;2022-10-16T09:21:54;4.65;;;0.98;;
33902;SDS011;20194;50.950;5.346;2022-10-16T09:24:22;2.40;;;0.80;;
33902;SDS011;20194;50.950;5.346;2022-10-16T09:26:50;4.82;;;1.60;;
33902;SDS011;20194;50.950;5.346;2022-10-16T09:29:18;2.70;;;1.10;;
33902;SDS011;20194;50.950;5.346;2022-10-16T09:31:46;6.70;;;1.40;;
33902;SDS011;20194;50.950;5.346;2022-10-16T09:34:20;3.97;;;1.00;;
33902;SDS011;20194;50.950;5.346;2022-10-16T09:36:58;5.40;;;1.13;;
33902;SDS011;20194;50.950;5.346;2022-10-16T09:39:28;6.00;;;1.33;;
33902;SDS011;20194;50.950;5.346;2022-10-16T09:41:53;3.03;;;1.00;;
33902;SDS011;20194;50.950;5.346;2022-10-16T09:44:24;1.83;;;1.17;;
33902;SDS011;20194;50.950;5.346;2022-10-16T09:49:28;7.90;;;1.40;;
33902;SDS011;20194;50.950;5.346;2022-10-16T09:54:53;5.50;;;1.38;;
33902;SDS011;20194;50.950;5.346;2022-10-16T09:57:21;4.00;;;1.00;;
33902;SDS011;20194;50.950;5.346;2022-10-16T09:59:48;5.78;;;1.70;;
33902;SDS011;20194;50.950;5.346;2022-10-16T10:02:44;4.88;;;1.20;;
33902;SDS011;20194;50.950;5.346;2022-10-16T10:05:22;4.53;;;1.48;;
33902;SDS011;20194;50.950;5.346;2022-10-16T10:07:57;4.60;;;1.63;;
33902;SDS011;20194;50.950;5.346;2022-10-16T10:10:26;4.82;;;0.93;;
33902;SDS011;20194;50.950;5.346;2022-10-16T10:12:56;7.38;;;1.52;;
33902;SDS011;20194;50.950;5.346;2022-10-16T10:15:22;5.72;;;1.67;;
33902;SDS011;20194;50.950;5.346;2022-10-16T10:17:53;4.90;;;1.20;;
33902;SDS011;20194;50.950;5.346;2022-10-16T10:22:52;4.78;;;1.50;;
33902;SDS011;20194;50.950;5.346;2022-10-16T10:26:04;3.17;;;1.23;;
33902;SDS011;20194;50.950;5.346;2022-10-16T10:30:41;2.88;;;1.08;;
33902;SDS011;20194;50.950;5.346;2022-10-16T10:38:29;4.30;;;1.30;;
33902;SDS011;20194;50.950;5.346;2022-10-16T10:41:15;3.85;;;1.30;;
33902;SDS011;20194;50.950;5.346;2022-10-16T10:43:53;4.35;;;1.27;;
33902;SDS011;20194;50.950;5.346;2022-10-16T10:46:34;7.22;;;1.20;;
33902;SDS011;20194;50.950;5.346;2022-10-16T10:51:28;3.58;;;0.90;;
33902;SDS011;20194;50.950;5.346;2022-10-16T10:54:28;6.65;;;1.23;;
33902;SDS011;20194;50.950;5.346;2022-10-16T10:57:21;5.30;;;1.00;;
33902;SDS011;20194;50.950;5.346;2022-10-16T11:06:16;2.47;;;0.80;;
33902;SDS011;20194;50.950;5.346;2022-10-16T11:16:39;7.32;;;1.20;;
33902;SDS011;20194;50.950;5.346;2022-10-16T11:19:12;3.58;;;1.00;;
33902;SDS011;20194;50.950;5.346;2022-10-16T11:21:49;5.40;;;1.38;;
33902;SDS011;20194;50.950;5.346;2022-10-16T11:24:31;7.55;;;1.33;;
33902;SDS011;20194;50.950;5.346;2022-10-16T11:27:34;5.00;;;1.30;;
33902;SDS011;20194;50.950;5.346;2022-10-16T11:30:05;5.05;;;1.02;;
33902;SDS011;20194;50.950;5.346;2022-10-16T11:36:16;7.53;;;1.15;;
33902;SDS011;20194;50.950;5.346;2022-10-16T11:41:26;5.10;;;1.10;;
33902;SDS011;20194;50.950;5.346;2022-10-16T11:46:23;5.20;;;1.00;;
33902;SDS011;20194;50.950;5.346;2022-10-16T11:48:54;3.92;;;0.90;;
33902;SDS011;20194;50.950;5.346;2022-10-16T11:51:25;6.65;;;1.40;;
33902;SDS011;20194;50.950;5.346;2022-10-16T11:56:47;5.50;;;1.13;;
33902;SDS011;20194;50.950;5.346;2022-10-16T11:59:22;4.47;;;1.48;;
33902;SDS011;20194;50.950;5.346;2022-10-16T12:01:50;2.72;;;0.88;;
33902;SDS011;20194;50.950;5.346;2022-10-16T12:04:26;2.28;;;0.77;;
33902;SDS011;20194;50.950;5.346;2022-10-16T12:07:05;4.72;;;1.13;;
33902;SDS011;20194;50.950;5.346;2022-10-16T12:09:38;4.35;;;1.20;;
33902;SDS011;20194;50.950;5.346;2022-10-16T12:15:02;3.90;;;0.93;;
33902;SDS011;20194;50.950;5.346;2022-10-16T12:17:48;5.55;;;1.27;;
33902;SDS011;20194;50.950;5.346;2022-10-16T12:27:57;1.98;;;0.80;;
33902;SDS011;20194;50.950;5.346;2022-10-16T12:30:25;3.90;;;0.85;;
33902;SDS011;20194;50.950;5.346;2022-10-16T12:33:36;4.88;;;0.73;;
33902;SDS011;20194;50.950;5.346;2022-10-16T12:36:10;4.22;;;1.13;;
33902;SDS011;20194;50.950;5.346;2022-10-16T12:38:50;2.40;;;0.77;;
33902;SDS011;20194;50.950;5.346;2022-10-16T12:41:24;1.90;;;0.77;;
33902;SDS011;20194;50.950;5.346;2022-10-16T12:43:58;2.75;;;0.60;;
33902;SDS011;20194;50.950;5.346;2022-10-16T12:51:39;2.95;;;0.80;;
33902;SDS011;20194;50.950;5.346;2022-10-16T13:07:48;2.53;;;0.80;;
33902;SDS011;20194;50.950;5.346;2022-10-16T13:16:10;1.75;;;1.00;;
33902;SDS011;20194;50.950;5.346;2022-10-16T13:19:00;2.72;;;1.27;;
33902;SDS011;20194;50.950;5.346;2022-10-16T13:27:15;3.35;;;1.10;;
33902;SDS011;20194;50.950;5.346;2022-10-16T13:30:15;3.97;;;1.10;;
33902;SDS011;20194;50.950;5.346;2022-10-16T13:32:44;1.67;;;0.60;;
33902;SDS011;20194;50.950;5.346;2022-10-16T13:35:21;7.72;;;0.93;;
33902;SDS011;20194;50.950;5.346;2022-10-16T13:38:02;5.68;;;1.02;;
33902;SDS011;20194;50.950;5.346;2022-10-16T13:40:47;1.88;;;0.70;;
33902;SDS011;20194;50.950;5.346;2022-10-16T13:43:18;5.60;;;1.13;;
33902;SDS011;20194;50.950;5.346;2022-10-16T13:45:53;3.45;;;1.30;;
33902;SDS011;20194;50.950;5.346;2022-10-16T13:48:21;3.30;;;0.60;;
33902;SDS011;20194;50.950;5.346;2022-10-16T13:50:57;3.13;;;1.08;;
33902;SDS011;20194;50.950;5.346;2022-10-16T13:53:29;6.38;;;1.00;;
33902;SDS011;20194;50.950;5.346;2022-10-16T13:55:55;4.70;;;1.05;;
33902;SDS011;20194;50.950;5.346;2022-10-16T13:58:22;2.38;;;1.00;;
33902;SDS011;20194;50.950;5.346;2022-10-16T14:00:58;4.63;;;1.50;;
33902;SDS011;20194;50.950;5.346;2022-10-16T14:03:27;5.10;;;0.95;;
33902;SDS011;20194;50.950;5.346;2022-10-16T14:05:55;3.47;;;0.88;;
33902;SDS011;20194;50.950;5.346;2022-10-16T14:08:24;2.33;;;0.80;;
33902;SDS011;20194;50.950;5.346;2022-10-16T14:10:53;1.98;;;0.68;;
33902;SDS011;20194;50.950;5.346;2022-10-16T14:13:29;3.28;;;0.90;;
33902;SDS011;20194;50.950;5.346;2022-10-16T14:16:07;3.13;;;0.75;;
33902;SDS011;20194;50.950;5.346;2022-10-16T14:18:44;2.22;;;0.60;;
33902;SDS011;20194;50.950;5.346;2022-10-16T14:21:15;3.22;;;0.60;;
33902;SDS011;20194;50.950;5.346;2022-10-16T14:23:42;5.30;;;0.80;;
33902;SDS011;20194;50.950;5.346;2022-10-16T14:28:34;4.38;;;1.02;;
33902;SDS011;20194;50.950;5.346;2022-10-16T14:33:59;3.38;;;1.00;;
33902;SDS011;20194;50.950;5.346;2022-10-16T14:36:26;2.53;;;0.85;;
33902;SDS011;20194;50.950;5.346;2022-10-16T14:39:00;7.10;;;1.00;;
33902;SDS011;20194;50.950;5.346;2022-10-16T14:41:32;4.35;;;0.85;;
33902;SDS011;20194;50.950;5.346;2022-10-16T14:44:09;1.67;;;0.60;;
33902;SDS011;20194;50.950;5.346;2022-10-16T14:46:37;1.92;;;0.90;;
33902;SDS011;20194;50.950;5.346;2022-10-16T14:51:38;3.30;;;0.90;;
33902;SDS011;20194;50.950;5.346;2022-10-16T14:54:07;3.22;;;0.88;;
33902;SDS011;20194;50.950;5.346;2022-10-16T14:56:35;3.67;;;1.00;;
33902;SDS011;20194;50.950;5.346;2022-10-16T14:59:12;0.93;;;0.65;;
33902;SDS011;20194;50.950;5.346;2022-10-16T15:01:42;1.33;;;0.68;;
33902;SDS011;20194;50.950;5.346;2022-10-16T15:04:09;2.25;;;0.55;;
33902;SDS011;20194;50.950;5.346;2022-10-16T15:06:37;1.92;;;0.82;;
33902;SDS011;20194;50.950;5.346;2022-10-16T15:09:03;2.05;;;0.65;;
33902;SDS011;20194;50.950;5.346;2022-10-16T15:11:29;3.95;;;0.65;;
33902;SDS011;20194;50.950;5.346;2022-10-16T15:13:57;3.33;;;0.68;;
33902;SDS011;20194;50.950;5.346;2022-10-16T15:16:23;4.25;;;1.20;;
33902;SDS011;20194;50.950;5.346;2022-10-16T15:18:49;3.60;;;0.68;;
33902;SDS011;20194;50.950;5.346;2022-10-16T15:21:28;2.85;;;1.13;;
33902;SDS011;20194;50.950;5.346;2022-10-16T15:23:56;1.65;;;0.93;;
33902;SDS011;20194;50.950;5.346;2022-10-16T15:26:23;4.65;;;1.25;;
33902;SDS011;20194;50.950;5.346;2022-10-16T15:28:50;8.35;;;1.20;;
33902;SDS011;20194;50.950;5.346;2022-10-16T15:31:16;3.15;;;1.20;;
33902;SDS011;20194;50.950;5.346;2022-10-16T15:33:42;3.78;;;1.20;;
33902;SDS011;20194;50.950;5.346;2022-10-16T15:36:07;3.55;;;1.05;;
33902;SDS011;20194;50.950;5.346;2022-10-16T15:38:33;5.13;;;1.17;;
33902;SDS011;20194;50.950;5.346;2022-10-16T15:40:59;3.80;;;1.33;;
33902;SDS011;20194;50.950;5.346;2022-10-16T15:43:24;5.00;;;1.30;;
33902;SDS011;20194;50.950;5.346;2022-10-16T15:46:01;2.00;;;1.15;;
33902;SDS011;20194;50.950;5.346;2022-10-16T15:48:31;7.55;;;1.67;;
33902;SDS011;20194;50.950;5.346;2022-10-16T15:50:57;3.03;;;1.42;;
33902;SDS011;20194;50.950;5.346;2022-10-16T15:53:24;6.78;;;1.52;;
33902;SDS011;20194;50.950;5.346;2022-10-16T15:55:50;7.38;;;1.52;;
33902;SDS011;20194;50.950;5.346;2022-10-16T15:58:15;7.07;;;1.67;;
33902;SDS011;20194;50.950;5.346;2022-10-16T16:00:41;6.43;;;1.33;;
33902;SDS011;20194;50.950;5.346;2022-10-16T16:03:07;7.85;;;2.63;;
33902;SDS011;20194;50.950;5.346;2022-10-16T16:05:32;4.30;;;1.73;;
33902;SDS011;20194;50.950;5.346;2022-10-16T16:08:02;4.93;;;1.73;;
33902;SDS011;20194;50.950;5.346;2022-10-16T16:10:28;3.65;;;2.20;;
33902;SDS011;20194;50.950;5.346;2022-10-16T16:12:54;10.32;;;1.95;;
33902;SDS011;20194;50.950;5.346;2022-10-16T16:15:20;3.00;;;1.83;;
33902;SDS011;20194;50.950;5.346;2022-10-16T16:17:47;5.97;;;2.08;;
33902;SDS011;20194;50.950;5.346;2022-10-16T16:20:13;8.32;;;2.03;;
33902;SDS011;20194;50.950;5.346;2022-10-16T16:22:38;5.40;;;1.63;;
33902;SDS011;20194;50.950;5.346;2022-10-16T16:25:04;7.18;;;2.10;;
33902;SDS011;20194;50.950;5.346;2022-10-16T16:27:30;3.00;;;1.60;;
33902;SDS011;20194;50.950;5.346;2022-10-16T16:29:58;7.55;;;2.20;;
33902;SDS011;20194;50.950;5.346;2022-10-16T16:32:24;6.50;;;1.98;;
33902;SDS011;20194;50.950;5.346;2022-10-16T16:34:50;4.18;;;1.42;;
33902;SDS011;20194;50.950;5.346;2022-10-16T16:37:16;4.53;;;2.15;;
33902;SDS011;20194;50.950;5.346;2022-10-16T16:39:41;9.95;;;1.83;;
33902;SDS011;20194;50.950;5.346;2022-10-16T16:42:07;6.65;;;1.45;;
33902;SDS011;20194;50.950;5.346;2022-10-16T16:44:35;5.95;;;1.80;;
33902;SDS011;20194;50.950;5.346;2022-10-16T16:47:01;2.78;;;1.50;;
33902;SDS011;20194;50.950;5.346;2022-10-16T16:49:28;4.70;;;1.38;;
33902;SDS011;20194;50.950;5.346;2022-10-16T16:51:53;4.70;;;1.73;;
33902;SDS011;20194;50.950;5.346;2022-10-16T16:54:19;3.95;;;1.52;;
33902;SDS011;20194;50.950;5.346;2022-10-16T16:56:45;4.78;;;1.85;;
33902;SDS011;20194;50.950;5.346;2022-10-16T16:59:15;5.93;;;2.10;;
33902;SDS011;20194;50.950;5.346;2022-10-16T17:01:44;7.35;;;2.25;;